sensor_id;sensor_type;location;lat;lon;timestamp;P1;durP1;ratioP1;P2;durP2;ratioP2
19560;SDS011;9927;47.792;10.616;2022-10-31T04:01:49;6.22;;;4.75;;
19560;SDS011;9927;47.792;10.616;2022-10-31T04:04:19;6.07;;;4.80;;
19560;SDS011;9927;47.792;10.616;2022-10-31T04:06:47;6.15;;;4.32;;
19560;SDS011;9927;47.792;10.616;2022-10-31T04:09:15;4.60;;;4.20;;
19560;SDS011;9927;47.792;10.616;2022-10-31T04:11:46;6.63;;;4.80;;
19560;SDS011;9927;47.792;10.616;2022-10-31T04:14:18;6.85;;;4.90;;
19560;SDS011;9927;47.792;10.616;2022-10-31T04:16:46;5.45;;;4.68;;
19560;SDS011;9927;47.792;10.616;2022-10-31T04:19:13;5.47;;;4.57;;
19560;SDS011;9927;47.792;10.616;2022-10-31T04:21:41;6.35;;;4.63;;
19560;SDS011;9927;47.792;10.616;2022-10-31T04:24:11;5.00;;;4.67;;
19560;SDS011;9927;47.792;10.616;2022-10-31T04:26:38;6.20;;;4.40;;
19560;SDS011;9927;47.792;10.616;2022-10-31T04:29:05;5.57;;;4.80;;
19560;SDS011;9927;47.792;10.616;2022-10-31T04:31:33;7.55;;;4.90;;
19560;SDS011;9927;47.792;10.616;2022-10-31T04:34:00;5.83;;;4.70;;
19560;SDS011;9927;47.792;10.616;2022-10-31T04:36:27;5.00;;;4.50;;
19560;SDS011;9927;47.792;10.616;2022-10-31T04:38:54;8.63;;;5.45;;
19560;SDS011;9927;47.792;10.616;2022-10-31T04:41:21;7.03;;;5.10;;
19560;SDS011;9927;47.792;10.616;2022-10-31T04:43:48;6.37;;;5.10;;
19560;SDS011;9927;47.792;10.616;2022-10-31T04:46:15;10.37;;;5.30;;
19560;SDS011;9927;47.792;10.616;2022-10-31T04:48:43;7.77;;;4.40;;
19560;SDS011;9927;47.792;10.616;2022-10-31T04:51:10;5.10;;;4.20;;
19560;SDS011;9927;47.792;10.616;2022-10-31T04:53:37;5.50;;;4.17;;
19560;SDS011;9927;47.792;10.616;2022-10-31T04:56:04;4.65;;;4.25;;
19560;SDS011;9927;47.792;10.616;2022-10-31T04:58:32;6.50;;;4.47;;
19560;SDS011;9927;47.792;10.616;2022-10-31T05:00:59;7.20;;;4.17;;
19560;SDS011;9927;47.792;10.616;2022-10-31T05:03:26;5.50;;;4.00;;
19560;SDS011;9927;47.792;10.616;2022-10-31T05:05:54;6.93;;;4.37;;
19560;SDS011;9927;47.792;10.616;2022-10-31T05:08:21;5.13;;;4.40;;
19560;SDS011;9927;47.792;10.616;2022-10-31T05:10:48;8.23;;;4.63;;
19560;SDS011;9927;47.792;10.616;2022-10-31T05:13:15;7.37;;;5.10;;
19560;SDS011;9927;47.792;10.616;2022-10-31T05:15:42;8.57;;;4.60;;
19560;SDS011;9927;47.792;10.616;2022-10-31T05:18:10;5.27;;;4.50;;
19560;SDS011;9927;47.792;10.616;2022-10-31T05:20:37;10.17;;;4.70;;
19560;SDS011;9927;47.792;10.616;2022-10-31T05:23:04;6.85;;;4.35;;
19560;SDS011;9927;47.792;10.616;2022-10-31T05:25:31;9.07;;;5.03;;
19560;SDS011;9927;47.792;10.616;2022-10-31T05:27:58;5.45;;;4.32;;
19560;SDS011;9927;47.792;10.616;2022-10-31T05:30:27;4.97;;;4.50;;
19560;SDS011;9927;47.792;10.616;2022-10-31T05:32:56;7.27;;;4.40;;
19560;SDS011;9927;47.792;10.616;2022-10-31T05:35:25;11.27;;;5.07;;
19560;SDS011;9927;47.792;10.616;2022-10-31T05:37:54;8.67;;;4.93;;
19560;SDS011;9927;47.792;10.616;2022-10-31T05:40:21;5.17;;;4.30;;
19560;SDS011;9927;47.792;10.616;2022-10-31T05:42:52;5.93;;;4.63;;
19560;SDS011;9927;47.792;10.616;2022-10-31T05:45:20;8.80;;;4.90;;
19560;SDS011;9927;47.792;10.616;2022-10-31T05:47:55;7.33;;;4.70;;
19560;SDS011;9927;47.792;10.616;2022-10-31T05:50:24;5.73;;;4.30;;
19560;SDS011;9927;47.792;10.616;2022-10-31T05:52:56;6.40;;;4.47;;
19560;SDS011;9927;47.792;10.616;2022-10-31T05:55:28;6.20;;;4.43;;
19560;SDS011;9927;47.792;10.616;2022-10-31T05:57:56;8.23;;;5.10;;
19560;SDS011;9927;47.792;10.616;2022-10-31T06:00:24;7.10;;;4.87;;
19560;SDS011;9927;47.792;10.616;2022-10-31T06:02:58;16.60;;;5.00;;
19560;SDS011;9927;47.792;10.616;2022-10-31T06:05:27;8.90;;;4.70;;
19560;SDS011;9927;47.792;10.616;2022-10-31T06:07:55;11.17;;;4.90;;
19560;SDS011;9927;47.792;10.616;2022-10-31T06:10:23;17.60;;;5.47;;
19560;SDS011;9927;47.792;10.616;2022-10-31T06:12:50;10.33;;;5.00;;
19560;SDS011;9927;47.792;10.616;2022-10-31T06:15:18;15.97;;;5.37;;
19560;SDS011;9927;47.792;10.616;2022-10-31T06:18:00;12.17;;;5.83;;
19560;SDS011;9927;47.792;10.616;2022-10-31T06:20:30;17.73;;;5.57;;
19560;SDS011;9927;47.792;10.616;2022-10-31T06:22:58;11.83;;;5.20;;
19560;SDS011;9927;47.792;10.616;2022-10-31T06:25:26;16.13;;;6.00;;
19560;SDS011;9927;47.792;10.616;2022-10-31T06:27:53;10.70;;;5.10;;
19560;SDS011;9927;47.792;10.616;2022-10-31T06:30:21;13.67;;;5.60;;
19560;SDS011;9927;47.792;10.616;2022-10-31T06:32:48;10.23;;;5.63;;
19560;SDS011;9927;47.792;10.616;2022-10-31T06:35:16;8.70;;;5.60;;
19560;SDS011;9927;47.792;10.616;2022-10-31T06:37:50;7.67;;;5.07;;
19560;SDS011;9927;47.792;10.616;2022-10-31T06:40:18;8.30;;;5.50;;
19560;SDS011;9927;47.792;10.616;2022-10-31T06:42:45;6.87;;;5.57;;
19560;SDS011;9927;47.792;10.616;2022-10-31T06:45:12;14.33;;;6.07;;
19560;SDS011;9927;47.792;10.616;2022-10-31T06:47:40;10.17;;;4.87;;
19560;SDS011;9927;47.792;10.616;2022-10-31T06:50:27;8.20;;;4.70;;
19560;SDS011;9927;47.792;10.616;2022-10-31T06:52:55;6.83;;;4.70;;
19560;SDS011;9927;47.792;10.616;2022-10-31T06:55:25;9.37;;;5.33;;
19560;SDS011;9927;47.792;10.616;2022-10-31T06:57:53;9.47;;;5.37;;
19560;SDS011;9927;47.792;10.616;2022-10-31T07:00:28;11.80;;;6.57;;
19560;SDS011;9927;47.792;10.616;2022-10-31T07:03:06;11.63;;;5.20;;
19560;SDS011;9927;47.792;10.616;2022-10-31T07:05:37;8.40;;;5.40;;
19560;SDS011;9927;47.792;10.616;2022-10-31T07:08:05;13.33;;;5.57;;
19560;SDS011;9927;47.792;10.616;2022-10-31T07:10:35;13.87;;;5.90;;
19560;SDS011;9927;47.792;10.616;2022-10-31T07:13:08;9.77;;;5.65;;
19560;SDS011;9927;47.792;10.616;2022-10-31T07:15:38;7.07;;;4.97;;
19560;SDS011;9927;47.792;10.616;2022-10-31T07:18:07;10.00;;;5.50;;
19560;SDS011;9927;47.792;10.616;2022-10-31T07:20:36;11.35;;;5.00;;
19560;SDS011;9927;47.792;10.616;2022-10-31T07:23:03;9.02;;;5.43;;
19560;SDS011;9927;47.792;10.616;2022-10-31T07:25:31;5.55;;;4.68;;
19560;SDS011;9927;47.792;10.616;2022-10-31T07:27:58;7.07;;;4.40;;
19560;SDS011;9927;47.792;10.616;2022-10-31T07:30:26;5.43;;;4.20;;
19560;SDS011;9927;47.792;10.616;2022-10-31T07:32:54;10.63;;;5.07;;
19560;SDS011;9927;47.792;10.616;2022-10-31T07:35:25;5.00;;;4.43;;
19560;SDS011;9927;47.792;10.616;2022-10-31T07:37:54;7.57;;;4.70;;
19560;SDS011;9927;47.792;10.616;2022-10-31T07:40:22;6.40;;;4.45;;
19560;SDS011;9927;47.792;10.616;2022-10-31T07:42:51;5.63;;;4.45;;
19560;SDS011;9927;47.792;10.616;2022-10-31T07:45:19;5.32;;;4.80;;
19560;SDS011;9927;47.792;10.616;2022-10-31T07:50:19;7.30;;;4.55;;
19560;SDS011;9927;47.792;10.616;2022-10-31T07:52:48;9.80;;;4.28;;
19560;SDS011;9927;47.792;10.616;2022-10-31T07:55:28;7.45;;;4.55;;
19560;SDS011;9927;47.792;10.616;2022-10-31T07:58:02;7.75;;;4.07;;
19560;SDS011;9927;47.792;10.616;2022-10-31T08:00:32;14.07;;;5.10;;
19560;SDS011;9927;47.792;10.616;2022-10-31T08:03:01;4.60;;;4.20;;
19560;SDS011;9927;47.792;10.616;2022-10-31T08:05:29;7.38;;;4.35;;
19560;SDS011;9927;47.792;10.616;2022-10-31T08:07:57;5.40;;;4.20;;
19560;SDS011;9927;47.792;10.616;2022-10-31T08:10:25;5.22;;;4.30;;
19560;SDS011;9927;47.792;10.616;2022-10-31T08:13:06;8.45;;;4.22;;
19560;SDS011;9927;47.792;10.616;2022-10-31T08:15:34;4.72;;;4.30;;
19560;SDS011;9927;47.792;10.616;2022-10-31T08:18:05;5.70;;;4.25;;
19560;SDS011;9927;47.792;10.616;2022-10-31T08:20:33;8.02;;;3.95;;
19560;SDS011;9927;47.792;10.616;2022-10-31T08:23:01;4.85;;;4.35;;
19560;SDS011;9927;47.792;10.616;2022-10-31T08:25:32;5.28;;;4.07;;
19560;SDS011;9927;47.792;10.616;2022-10-31T08:28:05;4.20;;;3.67;;
19560;SDS011;9927;47.792;10.616;2022-10-31T08:30:34;5.15;;;4.10;;
19560;SDS011;9927;47.792;10.616;2022-10-31T08:33:15;4.68;;;3.90;;
19560;SDS011;9927;47.792;10.616;2022-10-31T08:35:44;6.75;;;4.47;;
19560;SDS011;9927;47.792;10.616;2022-10-31T08:38:12;10.77;;;3.80;;
19560;SDS011;9927;47.792;10.616;2022-10-31T08:40:39;6.05;;;4.10;;
19560;SDS011;9927;47.792;10.616;2022-10-31T08:43:13;10.43;;;4.25;;
19560;SDS011;9927;47.792;10.616;2022-10-31T08:45:42;7.70;;;4.30;;
19560;SDS011;9927;47.792;10.616;2022-10-31T08:48:13;5.45;;;4.18;;
19560;SDS011;9927;47.792;10.616;2022-10-31T08:50:42;7.85;;;3.85;;
19560;SDS011;9927;47.792;10.616;2022-10-31T08:53:12;6.80;;;3.90;;
19560;SDS011;9927;47.792;10.616;2022-10-31T08:55:41;5.72;;;3.58;;
19560;SDS011;9927;47.792;10.616;2022-10-31T08:58:10;6.93;;;4.13;;
19560;SDS011;9927;47.792;10.616;2022-10-31T09:00:39;8.70;;;4.78;;
19560;SDS011;9927;47.792;10.616;2022-10-31T09:03:11;5.65;;;4.47;;
19560;SDS011;9927;47.792;10.616;2022-10-31T09:05:40;7.90;;;4.18;;
19560;SDS011;9927;47.792;10.616;2022-10-31T09:08:07;6.78;;;4.30;;
19560;SDS011;9927;47.792;10.616;2022-10-31T09:10:41;5.32;;;4.72;;
19560;SDS011;9927;47.792;10.616;2022-10-31T09:13:10;7.47;;;4.88;;
19560;SDS011;9927;47.792;10.616;2022-10-31T09:15:44;6.72;;;4.90;;
19560;SDS011;9927;47.792;10.616;2022-10-31T09:18:12;8.60;;;4.78;;
19560;SDS011;9927;47.792;10.616;2022-10-31T09:20:41;5.25;;;4.38;;
19560;SDS011;9927;47.792;10.616;2022-10-31T09:23:11;5.07;;;4.57;;
19560;SDS011;9927;47.792;10.616;2022-10-31T09:25:40;5.40;;;4.28;;
19560;SDS011;9927;47.792;10.616;2022-10-31T09:28:15;8.43;;;5.20;;
19560;SDS011;9927;47.792;10.616;2022-10-31T09:30:46;7.75;;;4.72;;
19560;SDS011;9927;47.792;10.616;2022-10-31T09:33:14;8.43;;;4.72;;
19560;SDS011;9927;47.792;10.616;2022-10-31T09:35:42;9.50;;;5.07;;
19560;SDS011;9927;47.792;10.616;2022-10-31T09:38:10;5.88;;;4.75;;
19560;SDS011;9927;47.792;10.616;2022-10-31T09:41:24;13.00;;;5.95;;
19560;SDS011;9927;47.792;10.616;2022-10-31T09:52:12;11.13;;;5.40;;
19560;SDS011;9927;47.792;10.616;2022-10-31T09:54:54;8.40;;;4.40;;
19560;SDS011;9927;47.792;10.616;2022-10-31T09:57:28;4.57;;;4.18;;
19560;SDS011;9927;47.792;10.616;2022-10-31T09:59:59;7.43;;;4.38;;
19560;SDS011;9927;47.792;10.616;2022-10-31T10:02:30;5.97;;;4.28;;
19560;SDS011;9927;47.792;10.616;2022-10-31T10:05:05;4.78;;;4.38;;
19560;SDS011;9927;47.792;10.616;2022-10-31T10:16:10;9.73;;;4.53;;
19560;SDS011;9927;47.792;10.616;2022-10-31T10:21:39;8.57;;;4.05;;
19560;SDS011;9927;47.792;10.616;2022-10-31T10:32:43;10.95;;;6.78;;
19560;SDS011;9927;47.792;10.616;2022-10-31T10:37:54;7.72;;;4.90;;
19560;SDS011;9927;47.792;10.616;2022-10-31T10:40:27;5.85;;;4.22;;
19560;SDS011;9927;47.792;10.616;2022-10-31T10:51:44;6.10;;;3.50;;
19560;SDS011;9927;47.792;10.616;2022-10-31T11:00:18;7.90;;;3.72;;
19560;SDS011;9927;47.792;10.616;2022-10-31T11:02:53;7.95;;;3.80;;
19560;SDS011;9927;47.792;10.616;2022-10-31T11:05:26;8.68;;;4.20;;
19560;SDS011;9927;47.792;10.616;2022-10-31T11:07:59;11.85;;;4.70;;
19560;SDS011;9927;47.792;10.616;2022-10-31T11:10:26;10.27;;;4.03;;
19560;SDS011;9927;47.792;10.616;2022-10-31T11:13:37;7.53;;;3.85;;
19560;SDS011;9927;47.792;10.616;2022-10-31T11:18:44;8.10;;;3.45;;
19560;SDS011;9927;47.792;10.616;2022-10-31T11:21:27;5.97;;;3.53;;
19560;SDS011;9927;47.792;10.616;2022-10-31T11:24:02;5.18;;;3.30;;
19560;SDS011;9927;47.792;10.616;2022-10-31T11:26:38;4.97;;;3.30;;
19560;SDS011;9927;47.792;10.616;2022-10-31T11:29:16;5.15;;;3.22;;
19560;SDS011;9927;47.792;10.616;2022-10-31T11:31:46;6.65;;;3.50;;
19560;SDS011;9927;47.792;10.616;2022-10-31T11:39:38;4.88;;;3.28;;
19560;SDS011;9927;47.792;10.616;2022-10-31T11:42:08;4.97;;;3.13;;
19560;SDS011;9927;47.792;10.616;2022-10-31T11:44:36;8.35;;;3.42;;
19560;SDS011;9927;47.792;10.616;2022-10-31T11:47:10;9.20;;;3.55;;
19560;SDS011;9927;47.792;10.616;2022-10-31T11:49:42;4.10;;;3.10;;
19560;SDS011;9927;47.792;10.616;2022-10-31T11:52:17;8.55;;;3.45;;
19560;SDS011;9927;47.792;10.616;2022-10-31T11:54:58;6.97;;;3.15;;
19560;SDS011;9927;47.792;10.616;2022-10-31T11:57:31;6.68;;;3.20;;
19560;SDS011;9927;47.792;10.616;2022-10-31T12:00:00;6.13;;;3.03;;
19560;SDS011;9927;47.792;10.616;2022-10-31T12:02:30;4.22;;;3.20;;
19560;SDS011;9927;47.792;10.616;2022-10-31T12:07:46;6.75;;;3.78;;
19560;SDS011;9927;47.792;10.616;2022-10-31T12:10:15;4.15;;;3.38;;
19560;SDS011;9927;47.792;10.616;2022-10-31T12:13:08;6.97;;;3.45;;
19560;SDS011;9927;47.792;10.616;2022-10-31T12:16:12;4.60;;;3.38;;
19560;SDS011;9927;47.792;10.616;2022-10-31T12:18:59;4.78;;;3.42;;
19560;SDS011;9927;47.792;10.616;2022-10-31T12:21:34;4.78;;;3.20;;
19560;SDS011;9927;47.792;10.616;2022-10-31T12:27:13;3.85;;;2.92;;
19560;SDS011;9927;47.792;10.616;2022-10-31T12:41:14;6.22;;;3.70;;
19560;SDS011;9927;47.792;10.616;2022-10-31T12:49:12;8.68;;;3.58;;
19560;SDS011;9927;47.792;10.616;2022-10-31T12:52:04;7.43;;;3.28;;
19560;SDS011;9927;47.792;10.616;2022-10-31T12:55:04;6.05;;;3.20;;
19560;SDS011;9927;47.792;10.616;2022-10-31T12:57:48;7.60;;;3.60;;
19560;SDS011;9927;47.792;10.616;2022-10-31T13:00:20;7.22;;;3.10;;
19560;SDS011;9927;47.792;10.616;2022-10-31T13:02:59;3.20;;;2.90;;
19560;SDS011;9927;47.792;10.616;2022-10-31T13:05:31;7.82;;;3.90;;
19560;SDS011;9927;47.792;10.616;2022-10-31T13:08:05;4.60;;;3.28;;
19560;SDS011;9927;47.792;10.616;2022-10-31T13:10:45;9.82;;;3.70;;
19560;SDS011;9927;47.792;10.616;2022-10-31T13:13:18;6.38;;;3.42;;
19560;SDS011;9927;47.792;10.616;2022-10-31T13:15:55;10.25;;;3.60;;
19560;SDS011;9927;47.792;10.616;2022-10-31T13:18:33;6.97;;;3.67;;
19560;SDS011;9927;47.792;10.616;2022-10-31T13:21:08;5.85;;;3.45;;
19560;SDS011;9927;47.792;10.616;2022-10-31T13:23:44;7.90;;;3.40;;
19560;SDS011;9927;47.792;10.616;2022-10-31T13:28:57;8.25;;;3.60;;
19560;SDS011;9927;47.792;10.616;2022-10-31T13:31:45;8.57;;;3.65;;
19560;SDS011;9927;47.792;10.616;2022-10-31T13:34:18;4.60;;;2.88;;
19560;SDS011;9927;47.792;10.616;2022-10-31T13:37:00;6.70;;;3.10;;
19560;SDS011;9927;47.792;10.616;2022-10-31T13:42:45;9.85;;;4.63;;
19560;SDS011;9927;47.792;10.616;2022-10-31T13:45:17;5.30;;;3.50;;
19560;SDS011;9927;47.792;10.616;2022-10-31T13:47:59;7.68;;;3.97;;
19560;SDS011;9927;47.792;10.616;2022-10-31T13:50:54;9.00;;;3.80;;
19560;SDS011;9927;47.792;10.616;2022-10-31T13:53:42;7.97;;;3.50;;
19560;SDS011;9927;47.792;10.616;2022-10-31T13:59:03;5.68;;;3.95;;
19560;SDS011;9927;47.792;10.616;2022-10-31T14:01:51;6.07;;;3.30;;
19560;SDS011;9927;47.792;10.616;2022-10-31T14:06:58;6.43;;;3.58;;
19560;SDS011;9927;47.792;10.616;2022-10-31T14:26:07;7.75;;;4.22;;
19560;SDS011;9927;47.792;10.616;2022-10-31T14:28:56;5.70;;;3.85;;
19560;SDS011;9927;47.792;10.616;2022-10-31T14:31:29;9.45;;;4.60;;
19560;SDS011;9927;47.792;10.616;2022-10-31T14:44:56;8.52;;;4.22;;
19560;SDS011;9927;47.792;10.616;2022-10-31T14:47:41;7.30;;;4.13;;
19560;SDS011;9927;47.792;10.616;2022-10-31T14:50:21;9.00;;;4.50;;
19560;SDS011;9927;47.792;10.616;2022-10-31T14:52:53;6.00;;;4.05;;
19560;SDS011;9927;47.792;10.616;2022-10-31T14:55:24;7.32;;;4.63;;
19560;SDS011;9927;47.792;10.616;2022-10-31T14:57:54;5.15;;;4.30;;
19560;SDS011;9927;47.792;10.616;2022-10-31T15:00:26;8.13;;;4.40;;
19560;SDS011;9927;47.792;10.616;2022-10-31T15:05:50;7.47;;;4.57;;
19560;SDS011;9927;47.792;10.616;2022-10-31T15:08:29;8.10;;;4.55;;
19560;SDS011;9927;47.792;10.616;2022-10-31T15:11:21;10.75;;;4.35;;
19560;SDS011;9927;47.792;10.616;2022-10-31T15:13:50;8.40;;;5.18;;
19560;SDS011;9927;47.792;10.616;2022-10-31T15:16:26;9.35;;;5.18;;
19560;SDS011;9927;47.792;10.616;2022-10-31T15:19:03;10.52;;;4.68;;
19560;SDS011;9927;47.792;10.616;2022-10-31T15:21:33;7.50;;;4.78;;
19560;SDS011;9927;47.792;10.616;2022-10-31T15:24:05;9.00;;;4.53;;
19560;SDS011;9927;47.792;10.616;2022-10-31T15:26:38;8.25;;;4.60;;
19560;SDS011;9927;47.792;10.616;2022-10-31T15:29:16;10.23;;;5.15;;
19560;SDS011;9927;47.792;10.616;2022-10-31T15:31:59;13.40;;;8.13;;
19560;SDS011;9927;47.792;10.616;2022-10-31T15:34:42;6.80;;;5.22;;
19560;SDS011;9927;47.792;10.616;2022-10-31T15:37:13;22.98;;;13.18;;
19560;SDS011;9927;47.792;10.616;2022-10-31T15:39:45;10.75;;;7.72;;
19560;SDS011;9927;47.792;10.616;2022-10-31T15:42:32;10.50;;;6.05;;
19560;SDS011;9927;47.792;10.616;2022-10-31T15:47:38;8.30;;;5.00;;
19560;SDS011;9927;47.792;10.616;2022-10-31T15:50:21;10.07;;;7.53;;
19560;SDS011;9927;47.792;10.616;2022-10-31T15:53:04;13.15;;;6.28;;
19560;SDS011;9927;47.792;10.616;2022-10-31T15:55:45;13.32;;;5.70;;
19560;SDS011;9927;47.792;10.616;2022-10-31T15:58:18;10.68;;;5.53;;
19560;SDS011;9927;47.792;10.616;2022-10-31T16:00:55;9.77;;;5.60;;
19560;SDS011;9927;47.792;10.616;2022-10-31T16:03:28;13.27;;;8.38;;
19560;SDS011;9927;47.792;10.616;2022-10-31T16:05:58;18.42;;;8.80;;
19560;SDS011;9927;47.792;10.616;2022-10-31T16:10:57;14.25;;;7.50;;
19560;SDS011;9927;47.792;10.616;2022-10-31T16:13:27;18.90;;;9.60;;
19560;SDS011;9927;47.792;10.616;2022-10-31T16:16:00;21.23;;;8.65;;
19560;SDS011;9927;47.792;10.616;2022-10-31T16:18:50;19.83;;;9.27;;
19560;SDS011;9927;47.792;10.616;2022-10-31T16:21:23;14.48;;;7.97;;
19560;SDS011;9927;47.792;10.616;2022-10-31T16:24:04;16.27;;;8.68;;
19560;SDS011;9927;47.792;10.616;2022-10-31T16:26:53;11.55;;;7.70;;
19560;SDS011;9927;47.792;10.616;2022-10-31T16:29:56;11.82;;;7.90;;
19560;SDS011;9927;47.792;10.616;2022-10-31T16:32:33;14.60;;;8.48;;
19560;SDS011;9927;47.792;10.616;2022-10-31T16:37:39;14.15;;;7.85;;
19560;SDS011;9927;47.792;10.616;2022-10-31T16:40:08;12.32;;;6.57;;
19560;SDS011;9927;47.792;10.616;2022-10-31T16:42:40;11.18;;;5.90;;
19560;SDS011;9927;47.792;10.616;2022-10-31T16:45:12;8.68;;;5.97;;
19560;SDS011;9927;47.792;10.616;2022-10-31T16:47:44;13.32;;;5.90;;
19560;SDS011;9927;47.792;10.616;2022-10-31T16:50:12;10.73;;;6.90;;
19560;SDS011;9927;47.792;10.616;2022-10-31T16:52:42;9.85;;;6.28;;
19560;SDS011;9927;47.792;10.616;2022-10-31T16:55:31;8.98;;;7.30;;
19560;SDS011;9927;47.792;10.616;2022-10-31T16:58:01;9.40;;;7.00;;
19560;SDS011;9927;47.792;10.616;2022-10-31T17:00:29;16.02;;;8.55;;
19560;SDS011;9927;47.792;10.616;2022-10-31T17:02:57;18.17;;;11.52;;
19560;SDS011;9927;47.792;10.616;2022-10-31T17:05:24;18.85;;;12.98;;
19560;SDS011;9927;47.792;10.616;2022-10-31T17:07:58;21.00;;;13.07;;
19560;SDS011;9927;47.792;10.616;2022-10-31T17:10:26;16.30;;;10.73;;
19560;SDS011;9927;47.792;10.616;2022-10-31T17:12:53;19.85;;;12.20;;
19560;SDS011;9927;47.792;10.616;2022-10-31T17:15:24;18.30;;;10.07;;
19560;SDS011;9927;47.792;10.616;2022-10-31T17:17:53;17.63;;;10.05;;
19560;SDS011;9927;47.792;10.616;2022-10-31T17:20:24;16.25;;;9.68;;
19560;SDS011;9927;47.792;10.616;2022-10-31T17:22:53;13.60;;;8.80;;
19560;SDS011;9927;47.792;10.616;2022-10-31T17:25:22;13.18;;;7.18;;
19560;SDS011;9927;47.792;10.616;2022-10-31T17:27:51;10.25;;;6.90;;
19560;SDS011;9927;47.792;10.616;2022-10-31T17:30:19;12.50;;;7.40;;
19560;SDS011;9927;47.792;10.616;2022-10-31T17:32:48;11.15;;;7.60;;
19560;SDS011;9927;47.792;10.616;2022-10-31T17:35:17;13.80;;;8.82;;
19560;SDS011;9927;47.792;10.616;2022-10-31T17:37:44;21.67;;;13.27;;
19560;SDS011;9927;47.792;10.616;2022-10-31T17:40:13;24.65;;;15.95;;
19560;SDS011;9927;47.792;10.616;2022-10-31T17:42:49;19.95;;;12.20;;
19560;SDS011;9927;47.792;10.616;2022-10-31T17:45:17;20.85;;;11.55;;
19560;SDS011;9927;47.792;10.616;2022-10-31T17:47:46;19.08;;;12.77;;
19560;SDS011;9927;47.792;10.616;2022-10-31T17:50:14;21.27;;;13.70;;
19560;SDS011;9927;47.792;10.616;2022-10-31T17:52:42;17.90;;;12.95;;
19560;SDS011;9927;47.792;10.616;2022-10-31T17:55:10;18.92;;;13.50;;
19560;SDS011;9927;47.792;10.616;2022-10-31T17:57:38;17.42;;;13.25;;
19560;SDS011;9927;47.792;10.616;2022-10-31T18:00:07;19.95;;;12.40;;
19560;SDS011;9927;47.792;10.616;2022-10-31T18:02:36;17.05;;;11.52;;
19560;SDS011;9927;47.792;10.616;2022-10-31T18:05:04;16.88;;;11.05;;
19560;SDS011;9927;47.792;10.616;2022-10-31T18:07:32;18.77;;;11.95;;
19560;SDS011;9927;47.792;10.616;2022-10-31T18:09:59;15.45;;;10.93;;
19560;SDS011;9927;47.792;10.616;2022-10-31T18:12:27;13.35;;;10.57;;
19560;SDS011;9927;47.792;10.616;2022-10-31T18:14:54;14.77;;;9.95;;
19560;SDS011;9927;47.792;10.616;2022-10-31T18:17:21;15.02;;;10.23;;
19560;SDS011;9927;47.792;10.616;2022-10-31T18:19:49;11.85;;;10.00;;
19560;SDS011;9927;47.792;10.616;2022-10-31T18:22:16;14.50;;;9.50;;
19560;SDS011;9927;47.792;10.616;2022-10-31T18:24:43;16.33;;;10.35;;
19560;SDS011;9927;47.792;10.616;2022-10-31T18:27:10;9.90;;;8.73;;
19560;SDS011;9927;47.792;10.616;2022-10-31T18:29:38;11.02;;;8.73;;
19560;SDS011;9927;47.792;10.616;2022-10-31T18:32:05;15.70;;;9.82;;
19560;SDS011;9927;47.792;10.616;2022-10-31T18:34:35;15.63;;;10.07;;
19560;SDS011;9927;47.792;10.616;2022-10-31T18:37:02;14.23;;;9.80;;
19560;SDS011;9927;47.792;10.616;2022-10-31T18:39:30;12.70;;;9.05;;
19560;SDS011;9927;47.792;10.616;2022-10-31T18:41:57;12.85;;;9.20;;
19560;SDS011;9927;47.792;10.616;2022-10-31T18:44:24;13.55;;;9.15;;
19560;SDS011;9927;47.792;10.616;2022-10-31T18:46:52;14.73;;;9.45;;
19560;SDS011;9927;47.792;10.616;2022-10-31T18:49:20;15.25;;;10.38;;
19560;SDS011;9927;47.792;10.616;2022-10-31T18:51:51;14.35;;;9.88;;
19560;SDS011;9927;47.792;10.616;2022-10-31T18:54:18;19.73;;;9.88;;
19560;SDS011;9927;47.792;10.616;2022-10-31T18:56:45;12.55;;;9.60;;
19560;SDS011;9927;47.792;10.616;2022-10-31T18:59:12;15.32;;;9.65;;
19560;SDS011;9927;47.792;10.616;2022-10-31T19:01:40;18.55;;;10.90;;
19560;SDS011;9927;47.792;10.616;2022-10-31T19:04:08;15.25;;;9.98;;
19560;SDS011;9927;47.792;10.616;2022-10-31T19:06:37;17.75;;;10.48;;
19560;SDS011;9927;47.792;10.616;2022-10-31T19:09:04;11.80;;;10.00;;
19560;SDS011;9927;47.792;10.616;2022-10-31T19:11:35;15.07;;;10.88;;
19560;SDS011;9927;47.792;10.616;2022-10-31T19:14:04;11.82;;;10.60;;
19560;SDS011;9927;47.792;10.616;2022-10-31T19:16:34;11.80;;;8.82;;
19560;SDS011;9927;47.792;10.616;2022-10-31T19:19:01;12.00;;;9.10;;
19560;SDS011;9927;47.792;10.616;2022-10-31T19:21:28;15.75;;;9.75;;
19560;SDS011;9927;47.792;10.616;2022-10-31T19:23:58;13.98;;;10.15;;
19560;SDS011;9927;47.792;10.616;2022-10-31T19:26:26;14.70;;;10.68;;
19560;SDS011;9927;47.792;10.616;2022-10-31T19:28:54;15.65;;;10.70;;
19560;SDS011;9927;47.792;10.616;2022-10-31T19:31:22;15.77;;;10.60;;
19560;SDS011;9927;47.792;10.616;2022-10-31T19:33:49;13.52;;;10.45;;
19560;SDS011;9927;47.792;10.616;2022-10-31T19:36:17;17.50;;;11.43;;
19560;SDS011;9927;47.792;10.616;2022-10-31T19:38:46;16.65;;;11.27;;
19560;SDS011;9927;47.792;10.616;2022-10-31T19:41:16;15.88;;;11.43;;
19560;SDS011;9927;47.792;10.616;2022-10-31T19:43:49;16.95;;;11.88;;
19560;SDS011;9927;47.792;10.616;2022-10-31T19:46:18;14.75;;;11.13;;
19560;SDS011;9927;47.792;10.616;2022-10-31T19:49:06;16.35;;;11.43;;
19560;SDS011;9927;47.792;10.616;2022-10-31T19:51:34;13.05;;;11.02;;
19560;SDS011;9927;47.792;10.616;2022-10-31T19:54:02;16.33;;;12.10;;
19560;SDS011;9927;47.792;10.616;2022-10-31T19:56:29;18.90;;;14.13;;
19560;SDS011;9927;47.792;10.616;2022-10-31T19:58:56;23.45;;;12.85;;
19560;SDS011;9927;47.792;10.616;2022-10-31T20:01:25;16.23;;;10.88;;
19560;SDS011;9927;47.792;10.616;2022-10-31T20:03:52;16.73;;;11.68;;
19560;SDS011;9927;47.792;10.616;2022-10-31T20:06:26;14.68;;;10.38;;
19560;SDS011;9927;47.792;10.616;2022-10-31T20:08:56;18.70;;;10.45;;
19560;SDS011;9927;47.792;10.616;2022-10-31T20:11:24;15.45;;;10.43;;
19560;SDS011;9927;47.792;10.616;2022-10-31T20:13:53;13.88;;;9.55;;
19560;SDS011;9927;47.792;10.616;2022-10-31T20:16:21;11.40;;;8.98;;
19560;SDS011;9927;47.792;10.616;2022-10-31T20:18:50;13.50;;;9.73;;
19560;SDS011;9927;47.792;10.616;2022-10-31T20:21:19;14.90;;;10.43;;
19560;SDS011;9927;47.792;10.616;2022-10-31T20:23:48;12.32;;;9.60;;
19560;SDS011;9927;47.792;10.616;2022-10-31T20:26:20;14.95;;;11.75;;
19560;SDS011;9927;47.792;10.616;2022-10-31T20:28:47;18.20;;;10.25;;
19560;SDS011;9927;47.792;10.616;2022-10-31T20:31:16;14.80;;;11.07;;
19560;SDS011;9927;47.792;10.616;2022-10-31T20:33:45;12.32;;;9.73;;
19560;SDS011;9927;47.792;10.616;2022-10-31T20:36:13;10.77;;;8.55;;
19560;SDS011;9927;47.792;10.616;2022-10-31T20:38:41;13.88;;;9.13;;
19560;SDS011;9927;47.792;10.616;2022-10-31T20:41:09;11.85;;;9.52;;
19560;SDS011;9927;47.792;10.616;2022-10-31T20:43:36;13.60;;;10.02;;
19560;SDS011;9927;47.792;10.616;2022-10-31T20:46:14;13.82;;;9.82;;
19560;SDS011;9927;47.792;10.616;2022-10-31T20:48:44;15.20;;;10.07;;
19560;SDS011;9927;47.792;10.616;2022-10-31T20:51:13;17.08;;;10.68;;
19560;SDS011;9927;47.792;10.616;2022-10-31T20:53:49;16.58;;;12.13;;
19560;SDS011;9927;47.792;10.616;2022-10-31T20:56:18;14.02;;;10.63;;
19560;SDS011;9927;47.792;10.616;2022-10-31T20:58:47;14.85;;;10.32;;
19560;SDS011;9927;47.792;10.616;2022-10-31T21:01:16;16.17;;;10.38;;
19560;SDS011;9927;47.792;10.616;2022-10-31T21:03:45;14.63;;;9.60;;
19560;SDS011;9927;47.792;10.616;2022-10-31T21:06:13;12.85;;;9.50;;
19560;SDS011;9927;47.792;10.616;2022-10-31T21:08:41;12.68;;;9.40;;
19560;SDS011;9927;47.792;10.616;2022-10-31T21:11:13;11.80;;;8.70;;
19560;SDS011;9927;47.792;10.616;2022-10-31T21:13:42;14.77;;;9.85;;